createdAt,value
2022-11-25T00:01:34.539Z,101386.58
2022-11-25T00:04:03.263Z,101381.18
2022-11-25T00:06:34.601Z,101382.05
2022-11-25T00:09:09.958Z,101376.37
2022-11-25T00:11:41.209Z,101375.05
2022-11-25T00:14:14.861Z,101369.59
2022-11-25T00:16:48.041Z,101371.21
2022-11-25T00:19:17.195Z,101374.11
2022-11-25T00:21:45.575Z,101367.17
2022-11-25T00:24:16.013Z,101362.02
2022-11-25T00:26:44.268Z,101367.66
2022-11-25T00:29:13.590Z,101368.05
2022-11-25T00:31:41.762Z,101372.08
2022-11-25T00:34:14.453Z,101369.36
2022-11-25T00:36:42.938Z,101369.95
2022-11-25T00:39:14.387Z,101369.64
2022-11-25T00:41:44.165Z,101369.82
2022-11-25T00:44:15.003Z,101371.52
2022-11-25T00:46:43.524Z,101374.71
2022-11-25T00:49:11.813Z,101373.23
2022-11-25T00:51:40.910Z,101371.13
2022-11-25T00:54:09.088Z,101367.67
2022-11-25T00:56:37.366Z,101362.92
2022-11-25T00:59:05.747Z,101361.63
2022-11-25T01:01:35.013Z,101361.67
2022-11-25T01:04:04.025Z,101361.88
2022-11-25T01:06:32.741Z,101357.26
2022-11-25T01:09:01.328Z,101352.03
2022-11-25T01:11:29.302Z,101344.15
2022-11-25T01:14:01.163Z,101345.44
2022-11-25T01:16:30.891Z,101346.63
2022-11-25T01:19:00.591Z,101343.64
2022-11-25T01:21:32.671Z,101343.05
2022-11-25T01:24:02.983Z,101340.92
2022-11-25T01:26:32.290Z,101342.31
2022-11-25T01:29:06.535Z,101344.42
2022-11-25T01:31:36.677Z,101349.23
2022-11-25T01:34:08.900Z,101348.00
2022-11-25T01:36:37.180Z,101345.22
2022-11-25T01:39:06.111Z,101340.93
2022-11-25T01:41:35.638Z,101334.80
2022-11-25T01:44:07.959Z,101331.46
2022-11-25T01:46:51.487Z,101325.73
2022-11-25T01:49:40.540Z,101326.56
2022-11-25T01:52:21.515Z,101331.87
2022-11-25T01:55:12.825Z,101326.44
2022-11-25T01:57:46.322Z,101322.61
2022-11-25T02:00:16.446Z,101327.20
2022-11-25T02:02:46.803Z,101327.39
2022-11-25T02:05:32.404Z,101333.84
2022-11-25T02:08:02.462Z,101334.96
2022-11-25T02:10:32.896Z,101337.31
2022-11-25T02:13:00.973Z,101335.11
2022-11-25T02:15:32.004Z,101329.83
2022-11-25T02:18:00.400Z,101326.41
2022-11-25T02:20:29.503Z,101332.89
2022-11-25T02:23:19.733Z,101333.97
2022-11-25T02:25:48.141Z,101341.20
2022-11-25T02:28:23.920Z,101337.33
2022-11-25T02:30:53.132Z,101340.99
2022-11-25T02:33:21.493Z,101343.72
2022-11-25T02:35:58.853Z,101340.62
2022-11-25T02:38:44.357Z,101343.38
2022-11-25T02:41:39.088Z,101341.52
2022-11-25T02:44:07.496Z,101342.88
2022-11-25T02:46:36.203Z,101342.75
2022-11-25T02:49:09.730Z,101339.06
2022-11-25T02:51:40.452Z,101337.58
2022-11-25T02:54:08.629Z,101330.19
2022-11-25T02:56:37.623Z,101327.41
2022-11-25T02:59:06.409Z,101330.69
2022-11-25T03:01:36.106Z,101329.64
2022-11-25T03:04:05.054Z,101335.36
2022-11-25T03:06:33.612Z,101345.63
2022-11-25T03:09:03.017Z,101351.79
2022-11-25T03:11:31.300Z,101359.02
2022-11-25T03:13:59.374Z,101360.81
2022-11-25T03:16:27.981Z,101365.50
2022-11-25T03:18:56.142Z,101359.83
2022-11-25T03:21:24.320Z,101367.48
2022-11-25T03:23:52.703Z,101369.35
2022-11-25T03:26:21.396Z,101369.95
2022-11-25T03:28:49.981Z,101365.59
2022-11-25T03:31:18.089Z,101373.32
2022-11-25T03:33:46.337Z,101373.74
2022-11-25T03:36:14.619Z,101369.87
2022-11-25T03:38:42.795Z,101368.67
2022-11-25T03:41:11.075Z,101369.83
2022-11-25T03:43:39.459Z,101366.84
2022-11-25T03:46:07.695Z,101366.31
2022-11-25T03:48:36.022Z,101360.17
2022-11-25T03:51:04.413Z,101358.02
2022-11-25T03:53:32.589Z,101359.54
2022-11-25T03:56:00.759Z,101361.23
2022-11-25T03:58:29.160Z,101358.41
2022-11-25T04:01:01.915Z,101365.14
2022-11-25T04:03:30.673Z,101366.31
2022-11-25T04:05:58.797Z,101367.59
2022-11-25T04:08:27.153Z,101368.47
2022-11-25T04:10:55.255Z,101372.39
2022-11-25T04:13:23.641Z,101370.02
2022-11-25T04:15:52.126Z,101370.00
2022-11-25T04:18:20.612Z,101374.23
2022-11-25T04:20:48.992Z,101373.70
2022-11-25T04:23:17.168Z,101376.77
2022-11-25T04:25:45.595Z,101375.24
2022-11-25T04:28:13.730Z,101373.92
2022-11-25T04:30:41.982Z,101377.81
2022-11-25T04:33:10.293Z,101376.68
2022-11-25T04:35:38.472Z,101376.10
2022-11-25T04:38:06.650Z,101375.36
2022-11-25T04:40:35.032Z,101369.63
2022-11-25T04:43:07.588Z,101363.77
2022-11-25T04:46:06.319Z,101362.22
2022-11-25T04:48:26.890Z,101358.46
2022-11-25T04:50:56.092Z,101358.41
2022-11-25T04:53:24.333Z,101359.10
2022-11-25T04:55:52.391Z,101357.73
2022-11-25T04:58:20.833Z,101363.48
2022-11-25T05:00:48.907Z,101367.85
2022-11-25T05:03:17.088Z,101369.22
2022-11-25T05:05:45.468Z,101373.95
2022-11-25T05:08:13.543Z,101375.90
2022-11-25T05:10:41.827Z,101377.64
2022-11-25T05:13:10.212Z,101377.32
2022-11-25T05:15:38.289Z,101390.90
2022-11-25T05:18:06.360Z,101396.71
2022-11-25T05:20:34.846Z,101397.34
2022-11-25T05:23:03.023Z,101398.59
2022-11-25T05:25:31.411Z,101395.65
2022-11-25T05:27:59.690Z,101394.73
2022-11-25T05:30:27.998Z,101394.70
2022-11-25T05:32:56.151Z,101393.29
2022-11-25T05:35:24.633Z,101394.52
2022-11-25T05:37:52.817Z,101393.80
2022-11-25T05:40:21.095Z,101393.75
2022-11-25T05:42:49.269Z,101396.64
2022-11-25T05:45:17.349Z,101393.38
2022-11-25T05:47:45.522Z,101392.14
2022-11-25T05:50:14.008Z,101393.30
2022-11-25T05:52:42.297Z,101402.95
2022-11-25T05:55:10.574Z,101412.12
2022-11-25T05:57:38.953Z,101409.90
2022-11-25T06:00:08.923Z,101409.76
2022-11-25T06:02:37.136Z,101412.64
2022-11-25T06:05:06.009Z,101413.67
2022-11-25T06:07:34.243Z,101420.88
2022-11-25T06:10:03.401Z,101418.20
2022-11-25T06:12:31.979Z,101414.27
2022-11-25T06:15:00.295Z,101409.69
2022-11-25T06:17:28.575Z,101416.29
2022-11-25T06:19:57.325Z,101423.27
2022-11-25T06:22:25.546Z,101425.72
2022-11-25T06:25:00.439Z,101420.80
2022-11-25T06:27:50.011Z,101422.48
2022-11-25T06:30:20.691Z,101428.89
2022-11-25T06:32:48.962Z,101438.62
2022-11-25T06:35:17.137Z,101433.98
2022-11-25T06:37:45.423Z,101436.45
2022-11-25T06:40:14.212Z,101437.14
2022-11-25T06:42:42.287Z,101443.09
2022-11-25T06:45:11.090Z,101443.96
2022-11-25T06:47:39.359Z,101444.80
2022-11-25T06:50:08.562Z,101444.69
2022-11-25T06:52:37.150Z,101448.19
2022-11-25T06:55:05.942Z,101449.27
2022-11-25T06:57:34.021Z,101456.82
2022-11-25T07:00:02.507Z,101463.38
2022-11-25T07:02:36.170Z,101462.70
2022-11-25T07:05:09.302Z,101464.20
2022-11-25T07:07:37.577Z,101469.02
2022-11-25T07:10:06.609Z,101477.88
2022-11-25T07:12:34.676Z,101481.94
2022-11-25T07:15:03.040Z,101484.42
2022-11-25T07:17:31.217Z,101484.23
2022-11-25T07:19:59.501Z,101485.21
2022-11-25T07:22:27.682Z,101488.77
2022-11-25T07:24:55.963Z,101489.02
2022-11-25T07:27:24.513Z,101490.61
2022-11-25T07:30:18.681Z,101496.45
2022-11-25T07:32:41.174Z,101496.02
2022-11-25T07:35:09.647Z,101494.54
2022-11-25T07:37:37.774Z,101491.66
2022-11-25T07:40:06.927Z,101496.23
2022-11-25T07:42:35.508Z,101496.39
2022-11-25T07:45:04.098Z,101494.49
2022-11-25T07:47:34.669Z,101495.78
2022-11-25T07:50:03.220Z,101494.02
2022-11-25T07:52:31.394Z,101502.11
2022-11-25T07:54:59.482Z,101505.92
2022-11-25T07:57:27.751Z,101511.73
2022-11-25T07:59:55.931Z,101508.39
2022-11-25T08:02:24.146Z,101517.17
2022-11-25T08:04:52.595Z,101526.52
2022-11-25T08:07:20.881Z,101530.98
2022-11-25T08:09:49.104Z,101531.11
2022-11-25T08:12:17.437Z,101531.38
2022-11-25T08:14:45.539Z,101541.55
2022-11-25T08:17:13.693Z,101549.37
2022-11-25T08:19:41.976Z,101548.80
2022-11-25T08:22:10.457Z,101552.23
2022-11-25T08:24:38.739Z,101561.09
2022-11-25T08:27:06.890Z,101566.84
2022-11-25T08:29:35.388Z,101566.81
2022-11-25T08:32:08.813Z,101565.95
2022-11-25T08:34:39.845Z,101569.60
2022-11-25T08:37:08.040Z,101575.98
2022-11-25T08:39:51.986Z,101574.44
2022-11-25T08:42:21.482Z,101565.15
2022-11-25T08:44:56.909Z,101561.21
2022-11-25T08:47:25.208Z,101563.10
2022-11-25T08:49:54.903Z,101563.29
2022-11-25T08:52:23.560Z,101569.35
2022-11-25T08:54:52.029Z,101567.54
2022-11-25T08:57:20.257Z,101568.64
2022-11-25T08:59:48.537Z,101576.85
2022-11-25T09:02:18.157Z,101585.98
2022-11-25T09:04:46.431Z,101591.72
2022-11-25T09:07:14.885Z,101601.59
2022-11-25T09:09:43.769Z,101598.09
2022-11-25T09:12:11.964Z,101597.16
2022-11-25T09:14:40.168Z,101582.46
2022-11-25T09:17:13.051Z,101578.41
2022-11-25T09:19:41.233Z,101580.91
2022-11-25T09:22:09.614Z,101581.66
2022-11-25T09:24:37.798Z,101580.88
2022-11-25T09:27:05.877Z,101587.73
2022-11-25T09:29:34.167Z,101595.43
2022-11-25T09:32:02.738Z,101606.21
2022-11-25T09:34:31.121Z,101616.91
2022-11-25T09:36:59.416Z,101623.20
2022-11-25T09:39:28.081Z,101625.03
2022-11-25T09:42:08.546Z,101615.27
2022-11-25T09:45:34.442Z,101615.72
2022-11-25T09:48:37.726Z,101617.63
2022-11-25T09:51:16.907Z,101619.42
2022-11-25T09:53:54.954Z,101617.23
2022-11-25T09:56:33.732Z,101610.64
2022-11-25T09:59:17.579Z,101618.25
2022-11-25T10:01:52.065Z,101619.29
2022-11-25T10:04:27.592Z,101629.27
2022-11-25T10:07:01.565Z,101631.55
2022-11-25T10:09:35.677Z,101640.40
2022-11-25T10:12:30.999Z,101644.38
2022-11-25T10:15:02.042Z,101639.77
2022-11-25T10:17:49.800Z,101643.93
2022-11-25T10:20:24.800Z,101641.08
2022-11-25T10:22:57.944Z,101639.59
2022-11-25T10:25:31.186Z,101635.16
2022-11-25T10:28:21.591Z,101643.77
2022-11-25T10:31:35.983Z,101651.86
2022-11-25T10:34:21.271Z,101652.08
2022-11-25T10:36:53.062Z,101655.89
2022-11-25T10:39:23.616Z,101658.16
2022-11-25T10:41:59.668Z,101654.44
2022-11-25T10:44:34.165Z,101656.70
2022-11-25T10:47:23.613Z,101659.71
2022-11-25T10:50:13.476Z,101646.48
2022-11-25T10:53:13.279Z,101640.20
2022-11-25T10:56:00.914Z,101633.21
2022-11-25T10:58:35.230Z,101630.30
2022-11-25T11:01:23.544Z,101630.77
2022-11-25T11:03:54.920Z,101629.51
2022-11-25T11:06:32.297Z,101627.04
2022-11-25T11:09:00.686Z,101627.76
2022-11-25T11:11:30.085Z,101627.39
2022-11-25T11:14:20.370Z,101626.51
2022-11-25T11:16:54.789Z,101622.94
2022-11-25T11:19:26.248Z,101622.83
2022-11-25T11:21:56.358Z,101617.16
2022-11-25T11:24:29.928Z,101627.41
2022-11-25T11:27:20.044Z,101643.70
2022-11-25T11:29:48.736Z,101631.40
2022-11-25T11:32:25.144Z,101628.67
2022-11-25T11:35:22.954Z,101633.93
2022-11-25T11:37:54.386Z,101635.34
2022-11-25T11:40:41.217Z,101613.27
2022-11-25T11:43:45.789Z,101614.51
2022-11-25T11:46:32.791Z,101618.64
2022-11-25T11:49:05.919Z,101611.82
2022-11-25T11:51:46.159Z,101605.20
2022-11-25T11:54:49.460Z,101600.77
2022-11-25T11:57:44.543Z,101619.38
2022-11-25T12:00:16.837Z,101611.44
2022-11-25T12:03:24.362Z,101612.33
2022-11-25T12:05:53.496Z,101610.14
2022-11-25T12:08:30.776Z,101609.63
2022-11-25T12:11:09.701Z,101612.94
2022-11-25T12:13:45.864Z,101613.96
2022-11-25T12:16:40.421Z,101614.05
2022-11-25T12:19:30.521Z,101617.64
2022-11-25T12:22:28.687Z,101613.98
2022-11-25T12:25:20.288Z,101610.35
2022-11-25T12:28:01.044Z,101610.58
2022-11-25T12:31:06.572Z,101619.38
2022-11-25T12:33:52.808Z,101622.49
2022-11-25T12:36:41.319Z,101618.73
2022-11-25T12:39:12.398Z,101617.46
2022-11-25T12:41:59.722Z,101614.87
2022-11-25T12:44:38.343Z,101618.98
2022-11-25T12:47:10.740Z,101612.86
2022-11-25T12:49:48.382Z,101604.73
2022-11-25T12:52:48.469Z,101602.06
2022-11-25T12:55:21.558Z,101593.79
2022-11-25T12:58:14.546Z,101597.62
2022-11-25T13:01:01.187Z,101597.89
2022-11-25T13:04:07.288Z,101608.17
2022-11-25T13:06:47.703Z,101605.86
2022-11-25T13:09:45.967Z,101598.95
2022-11-25T13:12:58.953Z,101602.73
2022-11-25T13:15:43.465Z,101612.91
2022-11-25T13:18:16.262Z,101610.20
2022-11-25T13:20:48.614Z,101609.71
2022-11-25T13:23:19.522Z,101618.65
2022-11-25T13:25:50.187Z,101605.07
2022-11-25T13:28:38.108Z,101613.14
2022-11-25T13:31:14.316Z,101617.35
2022-11-25T13:33:45.280Z,101616.59
2022-11-25T13:36:22.598Z,101615.34
2022-11-25T13:38:50.643Z,101608.91
2022-11-25T13:41:31.308Z,101612.79
2022-11-25T13:44:23.838Z,101608.00
2022-11-25T13:46:54.682Z,101613.67
2022-11-25T13:49:28.024Z,101618.20
2022-11-25T13:52:02.224Z,101621.75
2022-11-25T13:54:39.360Z,101623.83
2022-11-25T13:57:10.461Z,101622.23
2022-11-25T13:59:50.504Z,101619.67
2022-11-25T14:02:28.070Z,101624.30
2022-11-25T14:05:11.177Z,101626.86
2022-11-25T14:07:49.934Z,101633.34
2022-11-25T14:10:36.902Z,101636.06
2022-11-25T14:13:37.215Z,101629.19
2022-11-25T14:16:40.634Z,101627.64
2022-11-25T14:19:55.659Z,101630.08
2022-11-25T14:22:35.918Z,101631.28
2022-11-25T14:25:23.111Z,101631.29
2022-11-25T14:28:03.535Z,101637.31
2022-11-25T14:30:34.134Z,101634.91
2022-11-25T14:33:08.389Z,101634.83
2022-11-25T14:35:50.723Z,101639.77
2022-11-25T14:38:40.593Z,101641.91
2022-11-25T14:41:32.998Z,101645.58
2022-11-25T14:44:12.737Z,101650.61
2022-11-25T14:47:04.068Z,101655.66
2022-11-25T14:49:59.642Z,101664.32
2022-11-25T14:52:36.548Z,101662.40
2022-11-25T14:55:06.609Z,101661.66
2022-11-25T14:57:38.684Z,101668.49
2022-11-25T15:00:17.459Z,101668.67
2022-11-25T15:03:03.900Z,101664.88
2022-11-25T15:05:34.899Z,101669.00
2022-11-25T15:08:23.846Z,101674.14
2022-11-25T15:10:58.266Z,101675.94
2022-11-25T15:13:43.744Z,101677.60
2022-11-25T15:16:17.049Z,101686.70
2022-11-25T15:19:06.686Z,101682.54
2022-11-25T15:22:07.443Z,101699.06
2022-11-25T15:24:42.877Z,101705.45
2022-11-25T15:27:17.669Z,101705.20
2022-11-25T15:29:48.161Z,101717.44
2022-11-25T15:32:20.439Z,101727.51
2022-11-25T15:34:51.294Z,101728.55
2022-11-25T15:37:20.145Z,101732.86
2022-11-25T15:39:49.159Z,101737.60
2022-11-25T15:42:21.299Z,101736.02
2022-11-25T15:45:08.915Z,101744.36
2022-11-25T15:47:37.530Z,101756.20
2022-11-25T15:50:28.113Z,101761.90
2022-11-25T15:53:00.608Z,101758.95
2022-11-25T15:55:32.124Z,101765.88
2022-11-25T15:58:13.140Z,101769.52
2022-11-25T16:00:41.779Z,101773.53
2022-11-25T16:03:23.285Z,101780.03
2022-11-25T16:06:01.260Z,101784.54
2022-11-25T16:08:38.178Z,101788.43
2022-11-25T16:11:17.077Z,101794.60
2022-11-25T16:13:50.785Z,101793.95
2022-11-25T16:16:29.062Z,101801.42
2022-11-25T16:19:10.352Z,101801.77
2022-11-25T16:21:44.599Z,101809.95
2022-11-25T16:24:33.658Z,101808.01
2022-11-25T16:27:13.433Z,101807.60
2022-11-25T16:29:52.010Z,101806.71
2022-11-25T16:32:31.719Z,101805.52
2022-11-25T16:35:15.571Z,101811.06
2022-11-25T16:37:48.808Z,101809.98
2022-11-25T16:40:18.863Z,101814.54
2022-11-25T16:42:49.586Z,101818.52
2022-11-25T16:45:26.570Z,101819.43
2022-11-25T16:47:55.168Z,101817.23
2022-11-25T16:50:23.834Z,101817.33
2022-11-25T16:52:52.241Z,101823.53
2022-11-25T16:55:20.827Z,101820.71
2022-11-25T16:57:49.008Z,101827.56
2022-11-25T17:00:18.003Z,101830.52
2022-11-25T17:02:46.221Z,101825.96
2022-11-25T17:05:22.207Z,101821.57
2022-11-25T17:07:50.944Z,101821.49
2022-11-25T17:10:20.653Z,101828.40
2022-11-25T17:12:50.049Z,101832.58
2022-11-25T17:15:21.540Z,101832.84
2022-11-25T17:17:50.500Z,101833.45
2022-11-25T17:20:22.500Z,101835.96
2022-11-25T17:22:54.632Z,101839.89
2022-11-25T17:25:24.241Z,101841.47
2022-11-25T17:27:54.677Z,101841.61
2022-11-25T17:30:28.072Z,101840.13
2022-11-25T17:33:07.975Z,101845.50
2022-11-25T17:35:36.094Z,101849.91
2022-11-25T17:38:12.018Z,101851.58
2022-11-25T17:40:42.276Z,101859.89
2022-11-25T17:43:19.468Z,101867.20
2022-11-25T17:45:47.806Z,101869.16
2022-11-25T17:48:18.121Z,101870.98
2022-11-25T17:50:46.346Z,101867.42
2022-11-25T17:53:14.830Z,101869.28
2022-11-25T17:55:43.011Z,101875.25
2022-11-25T17:58:12.929Z,101874.90
2022-11-25T18:00:43.882Z,101878.66
2022-11-25T18:03:18.501Z,101877.92
2022-11-25T18:05:46.776Z,101884.85
2022-11-25T18:08:15.262Z,101890.43
2022-11-25T18:10:45.895Z,101897.70
2022-11-25T18:13:15.916Z,101902.95
2022-11-25T18:15:44.112Z,101907.55
2022-11-25T18:18:23.634Z,101917.27
2022-11-25T18:20:52.793Z,101919.42
2022-11-25T18:23:21.011Z,101924.71
2022-11-25T18:25:50.626Z,101927.26
2022-11-25T18:28:22.127Z,101932.84
2022-11-25T18:30:51.527Z,101939.50
2022-11-25T18:33:20.170Z,101939.36
2022-11-25T18:35:48.350Z,101942.59
2022-11-25T18:38:16.428Z,101948.23
2022-11-25T18:40:50.238Z,101948.69
2022-11-25T18:43:24.580Z,101953.91
2022-11-25T18:45:54.287Z,101957.36
2022-11-25T18:48:24.999Z,101956.88
2022-11-25T18:50:55.226Z,101959.48
2022-11-25T18:53:23.404Z,101965.44
2022-11-25T18:55:51.685Z,101965.84
2022-11-25T18:58:25.670Z,101972.39
2022-11-25T19:01:01.712Z,101974.43
2022-11-25T19:03:30.034Z,101976.40
2022-11-25T19:05:58.111Z,101982.06
2022-11-25T19:08:26.501Z,101985.09
2022-11-25T19:10:54.671Z,101985.10
2022-11-25T19:13:35.449Z,101990.77
2022-11-25T19:16:13.071Z,101990.83
2022-11-25T19:18:44.074Z,102000.08
2022-11-25T19:21:20.855Z,102003.01
2022-11-25T19:23:49.074Z,102010.43
2022-11-25T19:26:22.328Z,102009.84
2022-11-25T19:28:55.311Z,102012.08
2022-11-25T19:31:23.526Z,102015.20
2022-11-25T19:33:52.181Z,102021.77
2022-11-25T19:36:24.057Z,102030.73
2022-11-25T19:38:53.344Z,102028.73
2022-11-25T19:41:21.419Z,102032.73
2022-11-25T19:43:50.007Z,102042.19
2022-11-25T19:46:30.214Z,102053.19
2022-11-25T19:49:05.777Z,102057.70
2022-11-25T19:51:35.110Z,102062.84
2022-11-25T19:54:03.765Z,102070.77
2022-11-25T19:56:32.047Z,102073.70
2022-11-25T19:59:00.159Z,102072.85
2022-11-25T20:01:33.764Z,102072.95
2022-11-25T20:04:02.858Z,102072.92
2022-11-25T20:06:32.370Z,102066.61
2022-11-25T20:09:06.440Z,102070.79
2022-11-25T20:11:36.098Z,102071.09
2022-11-25T20:14:05.602Z,102077.15
2022-11-25T20:16:40.134Z,102082.05
2022-11-25T20:19:17.307Z,102086.19
2022-11-25T20:21:45.894Z,102088.90
2022-11-25T20:24:18.732Z,102094.85
2022-11-25T20:26:47.368Z,102102.94
2022-11-25T20:29:24.678Z,102111.48
2022-11-25T20:31:56.345Z,102108.58
2022-11-25T20:34:24.901Z,102107.83
2022-11-25T20:36:53.540Z,102117.43
2022-11-25T20:39:21.726Z,102124.47
2022-11-25T20:41:51.718Z,102130.23
2022-11-25T20:44:20.892Z,102138.02
2022-11-25T20:46:49.071Z,102150.79
2022-11-25T20:49:25.521Z,102156.88
2022-11-25T20:51:53.724Z,102163.48
2022-11-25T20:54:21.927Z,102157.86
2022-11-25T20:56:50.379Z,102158.45
2022-11-25T20:59:23.875Z,102155.48
2022-11-25T21:01:53.103Z,102153.56
2022-11-25T21:04:21.465Z,102155.55
2022-11-25T21:06:49.644Z,102162.27
2022-11-25T21:09:24.999Z,102172.56
2022-11-25T21:11:53.065Z,102169.02
2022-11-25T21:14:21.344Z,102171.73
2022-11-25T21:16:49.682Z,102173.92
2022-11-25T21:19:17.907Z,102184.35
2022-11-25T21:21:48.496Z,102182.16
2022-11-25T21:24:16.615Z,102181.30
2022-11-25T21:26:44.999Z,102182.31
2022-11-25T21:29:17.735Z,102182.30
2022-11-25T21:31:46.009Z,102184.93
2022-11-25T21:34:15.165Z,102188.66
2022-11-25T21:36:47.515Z,102197.40
2022-11-25T21:39:29.334Z,102201.23
2022-11-25T21:42:01.750Z,102192.16
2022-11-25T21:44:35.462Z,102185.33
2022-11-25T21:47:18.199Z,102184.43
2022-11-25T21:49:47.482Z,102189.98
2022-11-25T21:52:15.908Z,102178.70
2022-11-25T21:54:44.772Z,102179.42
2022-11-25T21:57:27.092Z,102188.81
2022-11-25T21:59:55.824Z,102195.95
2022-11-25T22:02:24.743Z,102182.85
2022-11-25T22:04:53.263Z,102178.55
2022-11-25T22:07:25.077Z,102171.81
2022-11-25T22:09:56.063Z,102167.77
2022-11-25T22:12:29.973Z,102166.10
2022-11-25T22:14:59.478Z,102169.88
2022-11-25T22:17:29.971Z,102174.70
2022-11-25T22:19:58.565Z,102175.58
2022-11-25T22:22:27.802Z,102179.35
2022-11-25T22:24:56.187Z,102177.44
2022-11-25T22:27:26.925Z,102178.30
2022-11-25T22:29:56.135Z,102179.11
2022-11-25T22:32:25.635Z,102182.23
2022-11-25T22:34:53.816Z,102188.65
2022-11-25T22:37:25.080Z,102185.96
2022-11-25T22:39:53.140Z,102192.47
2022-11-25T22:42:31.136Z,102205.26
2022-11-25T22:45:00.592Z,102214.55
2022-11-25T22:47:42.742Z,102218.89
2022-11-25T22:50:32.411Z,102220.70
2022-11-25T22:53:01.884Z,102217.05
2022-11-25T22:55:33.074Z,102214.27
2022-11-25T22:58:02.487Z,102219.98
2022-11-25T23:00:30.770Z,102227.56
2022-11-25T23:03:00.777Z,102229.99
2022-11-25T23:05:37.009Z,102229.77
2022-11-25T23:08:20.726Z,102226.38
2022-11-25T23:10:49.767Z,102229.15
2022-11-25T23:13:18.567Z,102222.35
2022-11-25T23:15:58.505Z,102217.83
2022-11-25T23:18:28.220Z,102217.66
2022-11-25T23:20:56.320Z,102219.87
2022-11-25T23:23:27.119Z,102220.54
2022-11-25T23:25:56.947Z,102231.92
2022-11-25T23:28:25.433Z,102237.75
2022-11-25T23:30:58.806Z,102239.83
2022-11-25T23:33:40.516Z,102237.61
2022-11-25T23:36:34.383Z,102235.86
2022-11-25T23:39:03.910Z,102227.36
2022-11-25T23:41:34.627Z,102222.59
2022-11-25T23:44:13.841Z,102230.52
2022-11-25T23:46:43.635Z,102228.83
2022-11-25T23:49:42.447Z,102239.66
2022-11-25T23:52:14.107Z,102236.77
2022-11-25T23:54:45.596Z,102243.52
2022-11-25T23:57:21.823Z,102237.55
2022-11-25T23:59:50.736Z,102233.30
